Time;durP1;ratioP1;P1;durP2;ratioP2;P2;SDS_P1;SDS_P2;PMS_P1;PMS_P2;Temp;Humidity;BMP_temperature;BMP_pressure;BME280_temperature;BME280_humidity;BME280_pressure;Samples;Min_cycle;Max_cycle;Signal;HPM_P1;HPM_P2
2024/01/10 00:02:37;;;;;;;;;;;-3272.30;70.30;;;;;;5112189;27;19931;-70
2024/01/10 00:05:10;;;;;;;;;;;-3272.30;70.80;;;;;;5104962;27;19931;-70
2024/01/10 00:07:45;;;;;;;;;;;-3272.40;70.60;;;;;;5118749;27;20451;-71
2024/01/10 00:10:18;;;;;;;;;;;-3272.60;70.30;;;;;;5118884;27;19931;-70
2024/01/10 00:12:51;;;;;;;;;;;-3272.50;70.30;;;;;;5112045;27;20433;-69
2024/01/10 00:15:24;;;;;;;;;;;-3272.40;70.40;;;;;;5115591;27;20461;-71
2024/01/10 00:17:57;;;;;;;;;;;-3272.40;70.60;;;;;;5095607;28;20378;-71
2024/01/10 00:20:30;;;;;;;;;;;-3272.30;70.60;;;;;;5112576;27;19927;-65
2024/01/10 00:22:58;;;;;;;;;;;-3272.30;71.20;;;;;;5097815;28;19993;-65
2024/01/10 00:25:31;;;;;;;;;;;-3272.30;71.10;;;;;;5116919;27;19928;-67
2024/01/10 00:28:05;;;;;;;;;;;-3272.30;71.20;;;;;;5112724;27;19999;-68
2024/01/10 00:30:38;;;;;;;;;;;-3272.30;71.30;;;;;;5113704;27;19977;-67
2024/01/10 00:33:12;;;;;;;;;;;-3272.30;71.50;;;;;;5112335;27;19959;-67
2024/01/10 00:35:45;;;;;;;;;;;-3272.30;71.10;;;;;;5114366;27;19928;-67
2024/01/10 00:38:26;;;;;;;;;;;-3272.30;71.10;;;;;;5098781;28;19959;-66
2024/01/10 00:40:59;;;;;;;;;;;-3272.20;71.20;;;;;;5103174;27;19951;-68
2024/01/10 00:43:32;;;;;;;;;;;-3272.20;70.90;;;;;;5077660;28;20305;-66
2024/01/10 00:46:05;;;;;;;;;;;-3272.10;71.70;;;;;;5087273;28;19928;-68
2024/01/10 00:48:38;;;;;;;;;;;-3272.20;71.60;;;;;;5116357;27;19938;-65
2024/01/10 00:51:11;;;;;;;;;;;-3272.20;71.60;;;;;;5108286;27;19927;-66
2024/01/10 00:53:46;;;;;;;;;;;-3272.30;71.70;;;;;;5116334;27;19976;-67
2024/01/10 00:56:19;;;;;;;;;;;-3272.30;71.40;;;;;;5107339;27;19923;-67
2024/01/10 00:58:59;;;;;;;;;;;-3272.20;71.40;;;;;;5090486;28;20008;-65
2024/01/10 01:01:32;;;;;;;;;;;-3272.10;71.70;;;;;;5099934;27;20404;-67
2024/01/10 01:04:05;;;;;;;;;;;-3272.10;71.80;;;;;;5103348;27;20030;-65
2024/01/10 01:06:39;;;;;;;;;;;-3272.10;72.00;;;;;;5112670;27;20261;-67
2024/01/10 01:09:15;;;;;;;;;;;-3272.20;71.90;;;;;;5103396;27;20382;-65
2024/01/10 01:11:48;;;;;;;;;;;-3272.20;71.80;;;;;;5100706;27;19935;-68
2024/01/10 01:14:21;;;;;;;;;;;-3272.30;71.80;;;;;;5086607;28;19935;-68
2024/01/10 01:16:54;;;;;;;;;;;-3272.30;71.70;;;;;;5088568;28;19934;-67
2024/01/10 01:19:21;;;;;;;;;;;-3272.40;71.50;;;;;;5090551;27;19928;-67
2024/01/10 01:21:54;;;;;;;;;;;-3272.40;71.30;;;;;;5100165;27;19935;-68
2024/01/10 01:24:29;;;;;;;;;;;-3272.20;71.40;;;;;;5102574;27;19933;-69
2024/01/10 01:27:03;;;;;;;;;;;-3272.20;71.60;;;;;;5090760;28;19924;-68
2024/01/10 01:29:36;;;;;;;;;;;-3272.20;71.50;;;;;;5096367;27;19932;-69
2024/01/10 01:32:03;;;;;;;;;;;-3272.20;71.50;;;;;;5114926;27;20341;-69
2024/01/10 01:34:36;;;;;;;;;;;-3272.00;71.40;;;;;;5113716;27;19942;-69
2024/01/10 01:37:09;;;;;;;;;;;-3272.00;71.90;;;;;;5093045;28;20309;-70
2024/01/10 01:39:44;;;;;;;;;;;-3271.90;72.10;;;;;;5116835;27;19927;-70
2024/01/10 01:42:17;;;;;;;;;;;-3272.00;72.10;;;;;;5107973;27;19976;-70
2024/01/10 01:44:50;;;;;;;;;;;-3272.10;72.10;;;;;;5104458;27;20463;-69
2024/01/10 01:47:23;;;;;;;;;;;-3272.10;72.00;;;;;;5094579;27;19963;-70
2024/01/10 01:49:57;;;;;;;;;;;-3272.10;72.00;;;;;;5092100;28;19927;-70
2024/01/10 01:52:31;;;;;;;;;;;-3272.10;72.20;;;;;;5102700;27;19924;-69
2024/01/10 01:55:07;;;;;;;;;;;-3272.20;72.00;;;;;;5115399;27;19938;-69
2024/01/10 01:57:40;;;;;;;;;;;-3272.20;72.10;;;;;;5112316;27;19927;-70
2024/01/10 02:00:14;;;;;;;;;;;-3272.20;72.10;;;;;;5104030;27;19928;-70
2024/01/10 02:02:49;;;;;;;;;;;-3272.10;72.10;;;;;;5111375;27;19927;-69
2024/01/10 02:05:22;;;;;;;;;;;-3272.00;72.60;;;;;;5114938;27;20420;-70
2024/01/10 02:07:56;;;;;;;;;;;-3271.90;72.90;;;;;;5095389;28;19955;-69
2024/01/10 02:10:30;;;;;;;;;;;-3271.90;73.00;;;;;;5102877;27;19969;-70
2024/01/10 02:13:04;;;;;;;;;;;-3271.80;73.40;;;;;;5097846;28;19924;-70
2024/01/10 02:15:36;;;;;;;;;;;-3271.90;73.30;;;;;;5115605;27;19928;-69
2024/01/10 02:18:12;;;;;;;;;;;-3271.90;73.40;;;;;;5106702;27;19963;-69
2024/01/10 02:20:51;;;;;;;;;;;-3272.00;73.20;;;;;;5116976;27;19930;-69
2024/01/10 02:23:24;;;;;;;;;;;-3271.90;73.20;;;;;;5105696;27;19973;-69
2024/01/10 02:25:59;;;;;;;;;;;-3271.90;73.10;;;;;;5118206;27;19927;-69
2024/01/10 02:28:32;;;;;;;;;;;-3272.00;73.40;;;;;;5115261;27;19946;-69
2024/01/10 02:31:05;;;;;;;;;;;-3272.00;73.20;;;;;;5089155;28;19983;-70
2024/01/10 02:33:39;;;;;;;;;;;-3272.00;73.10;;;;;;5117820;27;19923;-70
2024/01/10 02:36:12;;;;;;;;;;;-3272.00;73.20;;;;;;5106067;27;19923;-70
2024/01/10 02:38:45;;;;;;;;;;;-3271.90;73.40;;;;;;5111889;28;19932;-69
2024/01/10 02:41:20;;;;;;;;;;;-3272.00;73.20;;;;;;5106214;28;19952;-67
2024/01/10 02:43:53;;;;;;;;;;;-3272.00;73.50;;;;;;5095004;28;19924;-67
2024/01/10 02:46:28;;;;;;;;;;;-3272.10;73.40;;;;;;5087837;28;19963;-68
2024/01/10 02:49:02;;;;;;;;;;;-3272.10;73.00;;;;;;5109474;28;19933;-67
2024/01/10 02:51:35;;;;;;;;;;;-3272.20;72.70;;;;;;5100769;28;19928;-68
2024/01/10 02:54:08;;;;;;;;;;;-3272.10;72.90;;;;;;5105943;28;20285;-67
2024/01/10 02:56:43;;;;;;;;;;;-3272.10;72.90;;;;;;5113702;28;20022;-65
2024/01/10 02:59:16;;;;;;;;;;;-3272.00;72.90;;;;;;5101685;28;19977;-68
2024/01/10 03:01:50;;;;;;;;;;;-3272.00;73.20;;;;;;5093379;28;20001;-67
2024/01/10 03:04:23;;;;;;;;;;;-3272.00;73.20;;;;;;5090713;27;20363;-67
2024/01/10 03:06:56;;;;;;;;;;;-3272.00;73.10;;;;;;5118681;27;19927;-65
2024/01/10 03:09:29;;;;;;;;;;;-3272.00;73.40;;;;;;5112297;27;19924;-67
2024/01/10 03:12:04;;;;;;;;;;;-3272.00;73.30;;;;;;5108384;27;19924;-64
2024/01/10 03:14:37;;;;;;;;;;;-3272.00;73.10;;;;;;5093981;28;19928;-68
2024/01/10 03:17:10;;;;;;;;;;;-3272.10;73.30;;;;;;5107667;27;19950;-67
2024/01/10 03:19:44;;;;;;;;;;;-3272.10;73.10;;;;;;5111644;27;19934;-68
2024/01/10 03:22:17;;;;;;;;;;;-3272.10;73.00;;;;;;5110277;27;20000;-67
2024/01/10 03:24:50;;;;;;;;;;;-3272.10;73.20;;;;;;5106116;27;19924;-68
2024/01/10 03:27:18;;;;;;;;;;;-3272.10;73.10;;;;;;5091835;28;19928;-68
2024/01/10 03:29:51;;;;;;;;;;;-3272.10;73.00;;;;;;5104618;27;20027;-67
2024/01/10 03:32:24;;;;;;;;;;;-3272.10;72.90;;;;;;5105495;27;19930;-67
2024/01/10 03:34:57;;;;;;;;;;;-3272.00;72.90;;;;;;5106907;27;19931;-66
2024/01/10 03:37:30;;;;;;;;;;;-3272.10;73.00;;;;;;5109566;27;19946;-67
2024/01/10 03:40:03;;;;;;;;;;;-3272.10;72.80;;;;;;5113626;27;19935;-67
2024/01/10 03:42:38;;;;;;;;;;;-3272.10;72.60;;;;;;5117230;27;19924;-68
2024/01/10 03:45:11;;;;;;;;;;;-3272.00;72.80;;;;;;5109292;27;20406;-67
2024/01/10 03:47:46;;;;;;;;;;;-3271.90;73.10;;;;;;5116684;27;19923;-67
2024/01/10 03:50:20;;;;;;;;;;;-3271.90;73.10;;;;;;5106650;27;19959;-67
2024/01/10 03:52:52;;;;;;;;;;;-3271.90;73.20;;;;;;5101233;28;19931;-67
2024/01/10 03:55:25;;;;;;;;;;;-3271.90;73.20;;;;;;5116092;27;20022;-68
2024/01/10 03:58:00;;;;;;;;;;;-3271.90;73.30;;;;;;5115313;27;19939;-68
2024/01/10 04:00:33;;;;;;;;;;;-3271.90;73.40;;;;;;5115538;27;20004;-68
2024/01/10 04:03:05;;;;;;;;;;;-3272.00;73.20;;;;;;5106755;27;19976;-67
2024/01/10 04:05:38;;;;;;;;;;;-3271.90;73.10;;;;;;5094828;27;19928;-68
2024/01/10 04:08:11;;;;;;;;;;;-3271.90;73.30;;;;;;5089097;28;19942;-68
2024/01/10 04:10:44;;;;;;;;;;;-3271.90;73.10;;;;;;5112999;27;19974;-66
2024/01/10 04:13:19;;;;;;;;;;;-3271.90;73.40;;;;;;5109015;27;20453;-68
2024/01/10 04:37:10;;;;;;;;;;;-3271.80;73.50;;;;;;5113225;27;19969;-68
2024/01/10 04:39:43;;;;;;;;;;;-3271.80;73.60;;;;;;5100979;27;20041;-68
2024/01/10 04:42:16;;;;;;;;;;;-3271.80;73.50;;;;;;5092241;28;19971;-68
2024/01/10 04:44:50;;;;;;;;;;;-3271.80;73.50;;;;;;5115717;27;19927;-68
2024/01/10 04:47:22;;;;;;;;;;;-3271.80;73.60;;;;;;5098791;28;19928;-67
2024/01/10 04:49:55;;;;;;;;;;;-3271.80;73.80;;;;;;5085982;28;20026;-67
2024/01/10 04:52:30;;;;;;;;;;;-3271.70;73.90;;;;;;5088412;28;19970;-67
2024/01/10 04:55:05;;;;;;;;;;;-3271.70;73.90;;;;;;5114768;27;19927;-67
2024/01/10 04:57:38;;;;;;;;;;;-3271.60;73.80;;;;;;5099155;27;20388;-68
2024/01/10 05:00:12;;;;;;;;;;;-3271.60;74.30;;;;;;5107005;27;19928;-62
2024/01/10 05:02:44;;;;;;;;;;;-3271.60;74.30;;;;;;5113716;27;19935;-62
2024/01/10 05:05:23;;;;;;;;;;;-3271.70;74.20;;;;;;5115916;27;19931;-63
2024/01/10 05:07:58;;;;;;;;;;;-3271.70;73.90;;;;;;5112402;27;19927;-61
2024/01/10 05:10:31;;;;;;;;;;;-3271.70;74.00;;;;;;5119607;27;19924;-61
2024/01/10 05:13:05;;;;;;;;;;;-3271.70;74.10;;;;;;5103058;27;20021;-62
2024/01/10 05:15:31;;;;;;;;;;;-3271.70;74.20;;;;;;5092680;28;19942;-61
2024/01/10 05:18:05;;;;;;;;;;;-3271.70;74.00;;;;;;5097903;27;19931;-62
2024/01/10 05:20:37;;;;;;;;;;;-3271.70;74.00;;;;;;5099527;27;19924;-62
2024/01/10 05:23:12;;;;;;;;;;;-3271.60;74.20;;;;;;5097036;27;19932;-61
2024/01/10 05:25:46;;;;;;;;;;;-3271.60;74.10;;;;;;5088784;28;19924;-61
2024/01/10 05:28:18;;;;;;;;;;;-3271.60;74.30;;;;;;5091754;28;19928;-60
2024/01/10 05:30:51;;;;;;;;;;;-3271.60;74.10;;;;;;5119238;27;19924;-61
2024/01/10 05:33:24;;;;;;;;;;;-3271.60;74.20;;;;;;5116034;27;19927;-61
2024/01/10 05:35:58;;;;;;;;;;;-3271.50;74.20;;;;;;5098065;28;20299;-61
2024/01/10 05:38:33;;;;;;;;;;;-3271.60;74.30;;;;;;5088296;28;19985;-62
2024/01/10 05:41:06;;;;;;;;;;;-3271.60;74.40;;;;;;5098598;27;20274;-62
2024/01/10 05:43:39;;;;;;;;;;;-3271.50;74.70;;;;;;5116285;27;19930;-62
2024/01/10 05:46:12;;;;;;;;;;;-3271.60;74.60;;;;;;5114994;27;19924;-62
2024/01/10 05:48:46;;;;;;;;;;;-3271.50;74.50;;;;;;5105952;27;20381;-61
2024/01/10 05:51:19;;;;;;;;;;;-3271.50;74.70;;;;;;5095816;27;19924;-62
2024/01/10 05:53:54;;;;;;;;;;;-3271.60;74.70;;;;;;5107758;27;20382;-62
2024/01/10 05:56:28;;;;;;;;;;;-3271.50;74.70;;;;;;5113573;27;19931;-60
2024/01/10 05:59:01;;;;;;;;;;;-3271.60;74.70;;;;;;5113376;27;20416;-64
2024/01/10 06:01:41;;;;;;;;;;;-3271.60;74.70;;;;;;5099323;28;19928;-62
2024/01/10 06:04:14;;;;;;;;;;;-3271.60;74.60;;;;;;5108585;27;19935;-61
2024/01/10 06:06:47;;;;;;;;;;;-3271.60;74.50;;;;;;5108188;27;19938;-62
2024/01/10 06:09:22;;;;;;;;;;;-3271.50;74.70;;;;;;5106994;27;20011;-67
2024/01/10 06:11:55;;;;;;;;;;;-3271.50;74.80;;;;;;5110056;27;19924;-69
2024/01/10 06:14:28;;;;;;;;;;;-3271.60;74.60;;;;;;5098669;27;19939;-70
2024/01/10 06:17:03;;;;;;;;;;;-3271.60;74.80;;;;;;5116557;27;19931;-70
2024/01/10 06:19:36;;;;;;;;;;;-3271.60;75.00;;;;;;5117137;27;19931;-69
2024/01/10 06:22:11;;;;;;;;;;;-3271.60;74.70;;;;;;5118768;27;19949;-70
2024/01/10 06:24:45;;;;;;;;;;;-3271.60;74.90;;;;;;5107974;27;19958;-70
2024/01/10 06:27:11;;;;;;;;;;;-3271.70;74.50;;;;;;5108867;27;19938;-70
2024/01/10 06:29:44;;;;;;;;;;;-3271.60;74.50;;;;;;5109216;27;19935;-70
2024/01/10 06:32:17;;;;;;;;;;;-3271.60;74.60;;;;;;5107098;27;19932;-69
2024/01/10 06:34:50;;;;;;;;;;;-3271.60;74.80;;;;;;5113362;27;19980;-69
2024/01/10 06:37:23;;;;;;;;;;;-3271.60;75.00;;;;;;5106467;27;19928;-69
2024/01/10 06:39:58;;;;;;;;;;;-3271.60;74.90;;;;;;5104622;28;19950;-69
2024/01/10 06:42:31;;;;;;;;;;;-3271.50;74.80;;;;;;5105387;28;19930;-69
2024/01/10 06:45:06;;;;;;;;;;;-3271.50;74.90;;;;;;5118065;28;20438;-70
2024/01/10 06:47:39;;;;;;;;;;;-3271.60;74.90;;;;;;5103440;28;19924;-68
2024/01/10 06:50:12;;;;;;;;;;;-3271.60;75.00;;;;;;5097857;28;19924;-69
2024/01/10 06:52:45;;;;;;;;;;;-3271.60;75.10;;;;;;5117383;28;19963;-70
2024/01/10 06:55:22;;;;;;;;;;;-3271.60;74.90;;;;;;5094719;28;19954;-68
2024/01/10 06:57:54;;;;;;;;;;;-3271.60;75.00;;;;;;5101196;28;20389;-68
2024/01/10 07:00:27;;;;;;;;;;;-3271.50;75.00;;;;;;5115322;28;20007;-69
2024/01/10 07:03:03;;;;;;;;;;;-3271.60;75.10;;;;;;5103606;28;20015;-70
2024/01/10 07:05:36;;;;;;;;;;;-3271.60;75.10;;;;;;5098734;28;19936;-70
2024/01/10 07:08:09;;;;;;;;;;;-3271.60;75.00;;;;;;5097947;28;20020;-68
2024/01/10 07:10:43;;;;;;;;;;;-3271.60;75.10;;;;;;5114682;28;19980;-70
2024/01/10 07:13:16;;;;;;;;;;;-3271.60;75.20;;;;;;5107752;28;19930;-69
2024/01/10 07:15:52;;;;;;;;;;;-3271.60;75.20;;;;;;5095843;28;19924;-69
2024/01/10 07:18:40;;;;;;;;;;;-3271.70;75.00;;;;;;5115349;28;20388;-70
2024/01/10 07:21:21;;;;;;;;;;;-3271.70;75.00;;;;;;5093045;28;19970;-70
2024/01/10 07:23:53;;;;;;;;;;;-3271.70;75.00;;;;;;5101261;28;20194;-70
2024/01/10 07:26:28;;;;;;;;;;;-3271.60;75.20;;;;;;5092833;28;19924;-71
2024/01/10 07:29:02;;;;;;;;;;;-3271.60;75.10;;;;;;5115007;28;20422;-70
2024/01/10 07:31:35;;;;;;;;;;;-3271.70;75.20;;;;;;5116464;28;19932;-70
2024/01/10 07:34:09;;;;;;;;;;;-3271.60;75.00;;;;;;5101568;28;19928;-72
2024/01/10 07:36:42;;;;;;;;;;;-3271.60;75.10;;;;;;5107926;28;20409;-71
2024/01/10 07:39:18;;;;;;;;;;;-3271.70;75.20;;;;;;5115332;28;20010;-71
2024/01/10 07:41:52;;;;;;;;;;;-3271.70;75.10;;;;;;5110321;28;19939;-70
2024/01/10 07:44:26;;;;;;;;;;;-3271.70;75.00;;;;;;5115265;28;19968;-69
2024/01/10 07:46:59;;;;;;;;;;;-3271.70;75.30;;;;;;5093564;27;20263;-70
2024/01/10 07:49:32;;;;;;;;;;;-3271.70;75.20;;;;;;5115792;27;19930;-70
2024/01/10 07:52:06;;;;;;;;;;;-3271.70;75.00;;;;;;5100439;28;19928;-72
2024/01/10 07:54:32;;;;;;;;;;;-3271.70;75.10;;;;;;5118022;27;19997;-68
2024/01/10 07:57:07;;;;;;;;;;;-3271.60;75.30;;;;;;5101343;28;19923;-70
2024/01/10 07:59:40;;;;;;;;;;;-3271.70;75.50;;;;;;5111977;27;19928;-71
2024/01/10 08:02:14;;;;;;;;;;;-3271.60;75.70;;;;;;5113015;27;19934;-69
2024/01/10 08:04:46;;;;;;;;;;;-3271.70;75.70;;;;;;5103272;27;19932;-70
2024/01/10 08:07:20;;;;;;;;;;;-3271.80;75.60;;;;;;5104774;27;20441;-71
2024/01/10 08:09:53;;;;;;;;;;;-3271.70;75.60;;;;;;5105170;27;20432;-71
2024/01/10 08:12:28;;;;;;;;;;;-3271.80;75.50;;;;;;5104106;27;19928;-72
2024/01/10 08:15:01;;;;;;;;;;;-3271.80;75.60;;;;;;5108073;27;19977;-72
2024/01/10 08:17:37;;;;;;;;;;;-3271.80;75.60;;;;;;5108938;27;19931;-72
2024/01/10 08:20:11;;;;;;;;;;;-3271.90;75.30;;;;;;5116982;27;19974;-71
2024/01/10 08:22:44;;;;;;;;;;;-3271.90;75.40;;;;;;5117390;27;20009;-72
2024/01/10 08:25:18;;;;;;;;;;;-3271.90;75.30;;;;;;5098612;27;19924;-71
2024/01/10 08:27:55;;;;;;;;;;;-3272.00;75.30;;;;;;5106569;27;19977;-71
2024/01/10 08:30:27;;;;;;;;;;;-3271.90;75.10;;;;;;5088686;28;19935;-70
2024/01/10 08:33:00;;;;;;;;;;;-3271.90;75.30;;;;;;5100748;27;19935;-71
2024/01/10 08:35:33;;;;;;;;;;;-3271.90;75.20;;;;;;5116710;27;20442;-70
2024/01/10 08:38:07;;;;;;;;;;;-3271.90;75.10;;;;;;5107886;27;20461;-70
2024/01/10 08:40:41;;;;;;;;;;;-3271.90;75.20;;;;;;5105117;27;19924;-72
2024/01/10 08:43:15;;;;;;;;;;;-3271.90;75.10;;;;;;5090092;28;19928;-72
2024/01/10 08:45:48;;;;;;;;;;;-3271.90;75.00;;;;;;5100627;27;20010;-71
2024/01/10 08:48:21;;;;;;;;;;;-3271.90;75.10;;;;;;5118451;27;20342;-72
2024/01/10 08:50:56;;;;;;;;;;;-3272.00;75.20;;;;;;5104662;27;20405;-71
2024/01/10 08:53:35;;;;;;;;;;;-3272.10;74.90;;;;;;5092750;27;20285;-71
2024/01/10 08:56:09;;;;;;;;;;;-3272.00;74.70;;;;;;5113110;27;19924;-71
2024/01/10 08:58:44;;;;;;;;;;;-3272.00;74.50;;;;;;5119280;27;19970;-71
2024/01/10 09:01:17;;;;;;;;;;;-3272.10;75.00;;;;;;5099402;27;19928;-71
2024/01/10 09:03:50;;;;;;;;;;;-3272.10;74.60;;;;;;5110859;27;19927;-71
2024/01/10 09:06:23;;;;;;;;;;;-3272.20;74.40;;;;;;5110113;27;19969;-71
2024/01/10 09:08:56;;;;;;;;;;;-3272.30;74.40;;;;;;5114009;27;19924;-70
2024/01/10 09:11:30;;;;;;;;;;;-3272.30;74.30;;;;;;5105338;27;19924;-70
2024/01/10 09:14:04;;;;;;;;;;;-3272.40;74.10;;;;;;5111493;27;19931;-70
2024/01/10 09:16:38;;;;;;;;;;;-3272.40;73.80;;;;;;5097874;27;20047;-71
2024/01/10 09:19:11;;;;;;;;;;;-3272.40;73.80;;;;;;5110735;27;19924;-70
2024/01/10 09:21:45;;;;;;;;;;;-3272.50;73.80;;;;;;5118322;27;19930;-70
2024/01/10 09:24:19;;;;;;;;;;;-3272.60;73.80;;;;;;5096537;27;19995;-70
2024/01/10 09:26:51;;;;;;;;;;;-3272.60;73.60;;;;;;5097171;27;19988;-70
2024/01/10 09:29:20;;;;;;;;;;;-3272.60;73.60;;;;;;5118437;27;20030;-71
2024/01/10 09:31:53;;;;;;;;;;;-3272.70;73.50;;;;;;5102698;27;20382;-71
2024/01/10 09:34:19;;;;;;;;;;;-3272.70;73.40;;;;;;5102069;27;19931;-71
2024/01/10 09:36:53;;;;;;;;;;;-3272.70;73.30;;;;;;5091578;28;19932;-70
2024/01/10 09:39:25;;;;;;;;;;;-3272.70;73.40;;;;;;5093527;27;19927;-67
2024/01/10 09:41:59;;;;;;;;;;;-3272.70;73.30;;;;;;5111797;27;19935;-67
2024/01/10 09:44:33;;;;;;;;;;;-3272.70;73.20;;;;;;5108924;27;20442;-66
2024/01/10 09:47:07;;;;;;;;;;;-3272.70;73.40;;;;;;5118249;27;19924;-68
2024/01/10 09:49:39;;;;;;;;;;;-3272.70;73.40;;;;;;5118215;27;19928;-68
2024/01/10 09:52:17;;;;;;;;;;;-3272.70;73.30;;;;;;5109157;27;20319;-67
2024/01/10 09:54:54;;;;;;;;;;;-3272.80;73.40;;;;;;5118004;27;20371;-67
2024/01/10 09:57:27;;;;;;;;;;;-3272.90;73.20;;;;;;5091444;27;20016;-67
2024/01/10 10:00:04;;;;;;;;;;;-3272.80;73.10;;;;;;5119447;27;19986;-69
2024/01/10 10:02:38;;;;;;;;;;;-3272.80;73.30;;;;;;5113542;27;19977;-69
2024/01/10 10:05:15;;;;;;;;;;;-3272.80;73.60;;;;;;5107274;27;19949;-67
2024/01/10 10:07:48;;;;;;;;;;;-3272.80;73.60;;;;;;5096308;27;20075;-68
2024/01/10 10:10:21;;;;;;;;;;;-3272.80;73.90;;;;;;5116469;27;19934;-67
2024/01/10 10:12:54;;;;;;;;;;;-3272.90;74.00;;;;;;5112418;27;20393;-66
2024/01/10 10:15:28;;;;;;;;;;;-3272.90;74.00;;;;;;5117923;27;20414;-67
2024/01/10 10:18:00;;;;;;;;;;;-3272.90;73.90;;;;;;5109849;27;20026;-67
2024/01/10 10:20:35;;;;;;;;;;;-3272.90;73.90;;;;;;5093320;28;19950;-66
2024/01/10 10:23:10;;;;;;;;;;;-3272.90;73.90;;;;;;5089901;28;19950;-67
2024/01/10 10:25:44;;;;;;;;;;;-3273.00;73.90;;;;;;5109728;27;20006;-68
2024/01/10 10:28:24;;;;;;;;;;;-3273.00;73.80;;;;;;5107417;27;20018;-68
2024/01/10 10:30:59;;;;;;;;;;;-3273.00;73.80;;;;;;5116990;27;20290;-67
2024/01/10 10:33:33;;;;;;;;;;;-3273.00;73.80;;;;;;5105213;28;19949;-67
2024/01/10 10:36:07;;;;;;;;;;;-3273.10;73.90;;;;;;5101457;28;20002;-67
2024/01/10 10:38:40;;;;;;;;;;;-3273.20;74.00;;;;;;5104340;27;19928;-67
2024/01/10 10:41:14;;;;;;;;;;;-3273.30;73.70;;;;;;5116813;27;19928;-65
2024/01/10 10:43:42;;;;;;;;;;;-3273.30;73.60;;;;;;5097217;28;19927;-68
2024/01/10 10:46:16;;;;;;;;;;;-3273.40;73.50;;;;;;5110667;28;19989;-67
2024/01/10 10:48:50;;;;;;;;;;;-3273.50;73.30;;;;;;5117871;28;19934;-66
2024/01/10 10:51:18;;;;;;;;;;;-3273.50;73.10;;;;;;5078219;28;20443;-64
2024/01/10 10:53:52;;;;;;;;;;;-3273.40;73.10;;;;;;5116442;28;19936;-65
2024/01/10 10:56:27;;;;;;;;;;;-3273.40;73.10;;;;;;5107883;28;19928;-65
2024/01/10 10:59:02;;;;;;;;;;;-3273.50;73.30;;;;;;5100419;28;19924;-65
2024/01/10 11:01:36;;;;;;;;;;;-3273.60;73.10;;;;;;5095273;28;19951;-65
2024/01/10 11:04:10;;;;;;;;;;;-3273.80;73.00;;;;;;5090108;28;19934;-63
2024/01/10 11:06:44;;;;;;;;;;;-3273.80;72.70;;;;;;5102352;28;20030;-65
2024/01/10 11:09:22;;;;;;;;;;;-3274.00;72.60;;;;;;5104007;28;19935;-66
2024/01/10 11:12:04;;;;;;;;;;;-3274.10;72.30;;;;;;5099690;28;20447;-64
2024/01/10 11:14:47;;;;;;;;;;;-3274.20;72.20;;;;;;5087831;28;19968;-63
2024/01/10 11:17:31;;;;;;;;;;;-3274.30;72.00;;;;;;5109356;28;19981;-65
2024/01/10 11:20:14;;;;;;;;;;;-3274.20;71.90;;;;;;5093862;28;20401;-65
2024/01/10 11:22:58;;;;;;;;;;;-3274.20;71.80;;;;;;5118578;27;20301;-64
2024/01/10 11:25:32;;;;;;;;;;;-3274.20;72.00;;;;;;5109327;27;19943;-66
2024/01/10 11:28:06;;;;;;;;;;;-3274.30;71.80;;;;;;5106091;27;19932;-64
2024/01/10 11:30:49;;;;;;;;;;;-3274.40;71.60;;;;;;5092632;27;19931;-64
2024/01/10 11:33:25;;;;;;;;;;;-3274.40;71.60;;;;;;5100780;27;20378;-65
2024/01/10 11:36:11;;;;;;;;;;;-3274.30;71.70;;;;;;5116027;27;20446;-65
2024/01/10 11:38:45;;;;;;;;;;;-3274.40;71.80;;;;;;5105357;27;19937;-65
2024/01/10 11:41:22;;;;;;;;;;;-3274.40;71.80;;;;;;5110574;27;19924;-65
2024/01/10 11:44:17;;;;;;;;;;;-3274.40;71.90;;;;;;5107765;27;19973;-63
2024/01/10 11:46:51;;;;;;;;;;;-3274.40;71.90;;;;;;5119602;27;19931;-65
2024/01/10 11:49:25;;;;;;;;;;;-3274.50;71.80;;;;;;5112724;27;19930;-64
2024/01/10 11:52:00;;;;;;;;;;;-3274.50;71.70;;;;;;5120513;27;20016;-65
2024/01/10 11:54:37;;;;;;;;;;;-3274.50;71.80;;;;;;5114762;27;20381;-67
2024/01/10 11:57:14;;;;;;;;;;;-3274.50;71.70;;;;;;5105908;27;20533;-66
2024/01/10 11:59:48;;;;;;;;;;;-3274.60;71.80;;;;;;5101770;27;19935;-70
2024/01/10 12:02:23;;;;;;;;;;;-3274.60;71.60;;;;;;5104881;27;19934;-71
2024/01/10 12:04:58;;;;;;;;;;;-3274.60;71.60;;;;;;5096093;28;19938;-71
2024/01/10 12:07:32;;;;;;;;;;;-3274.70;71.70;;;;;;5117887;27;19968;-72
2024/01/10 12:10:05;;;;;;;;;;;-3274.70;71.60;;;;;;5098542;28;19978;-70
2024/01/10 12:12:32;;;;;;;;;;;-3274.70;71.70;;;;;;5117681;27;19934;-70
2024/01/10 12:15:05;;;;;;;;;;;-3274.80;71.60;;;;;;5101416;27;20011;-73
2024/01/10 12:17:39;;;;;;;;;;;-3274.80;71.50;;;;;;5101013;27;19934;-71
2024/01/10 12:20:13;;;;;;;;;;;-3274.90;71.40;;;;;;5117830;27;20018;-71
2024/01/10 12:22:47;;;;;;;;;;;-3274.90;71.30;;;;;;5112787;27;19947;-72
2024/01/10 12:25:20;;;;;;;;;;;-3274.90;71.40;;;;;;5115284;27;20015;-71
2024/01/10 12:27:53;;;;;;;;;;;-3274.90;71.40;;;;;;5096204;28;20011;-72
2024/01/10 12:30:26;;;;;;;;;;;-3275.00;71.40;;;;;;5089595;28;19932;-70
2024/01/10 12:33:00;;;;;;;;;;;-3275.00;71.30;;;;;;5089296;28;19928;-71
2024/01/10 12:35:35;;;;;;;;;;;-3275.00;71.30;;;;;;5106356;27;19943;-72
2024/01/10 12:38:11;;;;;;;;;;;-3275.00;71.10;;;;;;5085621;27;20277;-70
2024/01/10 12:40:44;;;;;;;;;;;-3275.00;71.10;;;;;;5117881;27;19928;-70
2024/01/10 12:43:17;;;;;;;;;;;-3275.00;71.10;;;;;;5116295;27;19931;-69
2024/01/10 12:46:02;;;;;;;;;;;-3275.10;71.00;;;;;;5117265;27;19930;-71
2024/01/10 12:48:37;;;;;;;;;;;-3275.10;71.00;;;;;;5117127;27;19931;-72
2024/01/10 12:51:13;;;;;;;;;;;-3275.20;71.00;;;;;;5108243;27;20386;-72
2024/01/10 12:53:50;;;;;;;;;;;-3275.20;70.90;;;;;;5105704;27;19924;-70
2024/01/10 12:56:24;;;;;;;;;;;-3275.20;71.00;;;;;;5104918;27;19928;-71
2024/01/10 12:58:57;;;;;;;;;;;-3275.20;71.00;;;;;;5103214;27;19928;-70
2024/01/10 13:01:30;;;;;;;;;;;-3275.30;70.90;;;;;;5103478;27;19928;-71
2024/01/10 13:04:03;;;;;;;;;;;-3275.30;70.90;;;;;;5093325;28;19935;-71
2024/01/10 13:06:38;;;;;;;;;;;-3275.30;70.80;;;;;;5096895;27;19923;-72
2024/01/10 13:09:12;;;;;;;;;;;-3275.30;70.90;;;;;;5100644;27;19973;-62
2024/01/10 13:11:46;;;;;;;;;;;-3275.40;70.90;;;;;;5108840;27;19928;-71
2024/01/10 13:14:20;;;;;;;;;;;-3275.40;70.80;;;;;;5101649;27;19931;-71
2024/01/10 13:16:54;;;;;;;;;;;-3275.50;70.70;;;;;;5119057;27;20304;-71
2024/01/10 13:19:27;;;;;;;;;;;-3275.50;70.60;;;;;;5106221;27;20337;-71
2024/01/10 13:22:01;;;;;;;;;;;-3275.50;70.60;;;;;;5101168;27;19924;-70
2024/01/10 13:24:35;;;;;;;;;;;-3275.50;70.50;;;;;;5108390;27;19923;-72
2024/01/10 13:27:09;;;;;;;;;;;-3275.50;70.50;;;;;;5084019;28;19962;-69
2024/01/10 13:29:44;;;;;;;;;;;-3275.60;70.40;;;;;;5110941;27;19931;-71
2024/01/10 13:32:17;;;;;;;;;;;-3275.60;70.40;;;;;;5114266;27;19985;-69
2024/01/10 13:34:50;;;;;;;;;;;-3275.60;70.40;;;;;;5093804;27;19928;-71
2024/01/10 13:37:26;;;;;;;;;;;-3275.60;70.40;;;;;;5107216;27;19924;-69
2024/01/10 13:40:00;;;;;;;;;;;-3275.60;70.40;;;;;;5113478;27;19999;-71
2024/01/10 13:42:26;;;;;;;;;;;-3275.60;70.30;;;;;;5107379;27;19931;-71
2024/01/10 13:45:00;;;;;;;;;;;-3275.70;70.30;;;;;;5101052;27;19928;-71
2024/01/10 13:47:33;;;;;;;;;;;-3275.60;70.30;;;;;;5097009;27;20394;-71
2024/01/10 13:50:08;;;;;;;;;;;-3275.60;70.40;;;;;;5111882;27;20401;-71
2024/01/10 13:52:44;;;;;;;;;;;-3275.70;70.30;;;;;;5103931;27;20047;-71
2024/01/10 13:55:17;;;;;;;;;;;-3275.70;70.30;;;;;;5089204;28;20386;-72
2024/01/10 13:57:50;;;;;;;;;;;-3275.80;70.20;;;;;;5107754;27;19924;-70
2024/01/10 14:00:23;;;;;;;;;;;-3275.80;70.00;;;;;;5103680;27;19932;-71
2024/01/10 14:03:03;;;;;;;;;;;-3275.80;70.10;;;;;;5105987;27;19924;-72
2024/01/10 14:05:37;;;;;;;;;;;-3275.80;70.10;;;;;;5100971;27;19924;-72
2024/01/10 14:08:11;;;;;;;;;;;-3275.80;70.30;;;;;;5116550;27;19923;-72
2024/01/10 14:10:45;;;;;;;;;;;-3275.80;70.30;;;;;;5114240;27;19930;-71
2024/01/10 14:13:18;;;;;;;;;;;-3275.80;70.40;;;;;;5100639;27;20026;-71
2024/01/10 14:15:52;;;;;;;;;;;-3275.80;70.40;;;;;;5094844;28;19932;-70
2024/01/10 14:18:31;;;;;;;;;;;-3275.80;70.40;;;;;;5105006;27;19928;-70
2024/01/10 14:21:05;;;;;;;;;;;-3275.80;70.40;;;;;;5102342;27;19924;-69
2024/01/10 14:23:39;;;;;;;;;;;-3275.80;70.50;;;;;;5114637;27;19930;-68
2024/01/10 14:26:13;;;;;;;;;;;-3275.90;70.50;;;;;;5104428;27;20038;-69
2024/01/10 14:28:46;;;;;;;;;;;-3275.90;70.50;;;;;;5102310;27;19928;-70
2024/01/10 14:31:19;;;;;;;;;;;-3275.90;70.60;;;;;;5085837;28;19947;-70
2024/01/10 14:33:52;;;;;;;;;;;-3275.90;70.50;;;;;;5108783;27;19936;-68
2024/01/10 14:36:18;;;;;;;;;;;-3275.90;70.60;;;;;;5116870;27;19928;-68
2024/01/10 14:38:55;;;;;;;;;;;-3275.90;70.70;;;;;;5108177;27;19963;-68
2024/01/10 14:41:21;;;;;;;;;;;-3275.80;70.80;;;;;;5096103;27;20427;-68